createdAt,value
2022-11-13T00:00:39.633Z,8.09
2022-11-13T00:06:01.345Z,7.96
2022-11-13T00:11:22.360Z,8.57
2022-11-13T00:16:42.973Z,8.40
2022-11-13T00:22:03.551Z,8.34
2022-11-13T00:27:24.245Z,8.17
2022-11-13T00:32:44.852Z,8.07
2022-11-13T00:38:05.777Z,8.46
2022-11-13T00:43:26.836Z,8.17
2022-11-13T00:48:47.590Z,8.07
2022-11-13T00:54:08.422Z,7.91
2022-11-13T00:59:29.333Z,7.68
2022-11-13T01:04:49.964Z,8.27
2022-11-13T01:10:11.181Z,8.11
2022-11-13T01:15:32.061Z,8.34
2022-11-13T01:20:53.070Z,8.30
2022-11-13T01:26:25.881Z,8.28
2022-11-13T01:31:46.547Z,7.84
2022-11-13T01:37:07.496Z,8.05
2022-11-13T01:42:28.392Z,7.47
2022-11-13T01:47:49.016Z,7.75
2022-11-13T01:53:10.019Z,7.84
2022-11-13T01:58:31.115Z,7.12
2022-11-13T02:03:51.610Z,8.03
2022-11-13T02:09:14.440Z,7.50
2022-11-13T02:14:36.248Z,8.01
2022-11-13T02:20:00.169Z,7.26
2022-11-13T02:25:21.065Z,7.45
2022-11-13T02:30:42.138Z,7.08
2022-11-13T02:36:03.981Z,7.78
2022-11-13T02:41:24.530Z,7.50
2022-11-13T02:46:45.326Z,7.65
2022-11-13T02:52:06.187Z,7.56
2022-11-13T02:57:27.039Z,7.12
2022-11-13T03:02:47.864Z,7.27
2022-11-13T03:08:08.962Z,6.85
2022-11-13T03:13:29.712Z,7.01
2022-11-13T03:18:50.385Z,6.84
2022-11-13T03:24:11.271Z,7.25
2022-11-13T03:29:32.051Z,6.90
2022-11-13T03:34:52.923Z,7.16
2022-11-13T03:40:13.452Z,7.45
2022-11-13T03:45:34.786Z,7.13
2022-11-13T03:50:56.415Z,7.31
2022-11-13T03:56:17.389Z,6.92
2022-11-13T04:01:38.289Z,7.20
2022-11-13T04:06:59.182Z,6.75
2022-11-13T04:12:19.796Z,6.43
2022-11-13T04:17:40.995Z,6.53
2022-11-13T04:23:01.992Z,6.55
2022-11-13T04:28:22.781Z,6.77
2022-11-13T04:33:43.798Z,6.85
2022-11-13T04:39:04.406Z,6.57
2022-11-13T04:44:25.337Z,6.93
2022-11-13T04:49:45.952Z,6.70
2022-11-13T04:55:07.059Z,6.81
2022-11-13T05:00:27.673Z,6.38
2022-11-13T05:05:48.403Z,5.81
2022-11-13T05:11:08.929Z,6.57
2022-11-13T05:16:29.691Z,6.90
2022-11-13T05:21:50.668Z,6.57
2022-11-13T05:27:16.891Z,6.47
2022-11-13T05:32:38.354Z,6.50
2022-11-13T05:38:02.842Z,6.35
2022-11-13T05:43:23.332Z,6.52
2022-11-13T05:48:45.153Z,6.92
2022-11-13T05:54:06.522Z,6.54
2022-11-13T05:59:30.535Z,6.87
2022-11-13T06:04:55.398Z,6.30
2022-11-13T06:10:17.466Z,6.62
2022-11-13T06:15:38.226Z,6.41
2022-11-13T06:21:04.211Z,5.80
2022-11-13T06:26:30.558Z,5.92
2022-11-13T06:31:51.278Z,5.79
2022-11-13T06:37:12.162Z,5.85
2022-11-13T06:42:32.718Z,5.66
2022-11-13T06:47:54.483Z,5.41
2022-11-13T06:53:18.626Z,6.14
2022-11-13T06:58:39.394Z,5.86
2022-11-13T07:04:00.602Z,5.70
2022-11-13T07:09:21.470Z,6.14
2022-11-13T07:14:42.297Z,7.72
2022-11-13T07:20:03.076Z,7.65
2022-11-13T07:25:25.249Z,7.55
2022-11-13T07:30:46.232Z,7.72
2022-11-13T07:36:08.647Z,8.13
2022-11-13T07:41:29.207Z,8.00
2022-11-13T07:46:49.787Z,8.46
2022-11-13T07:52:10.476Z,7.93
2022-11-13T07:57:31.189Z,8.07
2022-11-13T08:02:51.942Z,7.24
2022-11-13T08:08:13.894Z,6.99
2022-11-13T08:13:35.028Z,6.91
2022-11-13T08:18:55.614Z,6.11
2022-11-13T08:24:16.224Z,6.47
2022-11-13T08:29:37.559Z,5.91
2022-11-13T08:34:58.079Z,6.52
2022-11-13T08:40:19.268Z,5.84
2022-11-13T08:45:40.092Z,6.02
2022-11-13T08:51:01.377Z,5.92
2022-11-13T08:56:22.460Z,6.50
2022-11-13T09:01:43.479Z,5.88
2022-11-13T09:07:04.495Z,5.56
2022-11-13T09:12:25.323Z,6.22
2022-11-13T09:17:46.087Z,5.86
2022-11-13T09:23:08.322Z,5.81
2022-11-13T09:28:29.436Z,6.57
2022-11-13T09:33:50.555Z,6.58
2022-11-13T09:39:11.661Z,5.49
2022-11-13T09:44:57.645Z,6.03
2022-11-13T09:50:25.879Z,6.41
2022-11-13T09:55:58.379Z,6.39
2022-11-13T10:01:50.212Z,6.40
2022-11-13T10:07:43.255Z,6.10
2022-11-13T10:13:12.215Z,6.11
2022-11-13T10:18:36.675Z,6.23
2022-11-13T10:23:57.773Z,6.05
2022-11-13T10:29:20.158Z,6.56
2022-11-13T10:34:44.854Z,6.54
2022-11-13T10:40:06.652Z,6.34
2022-11-13T10:45:27.604Z,6.02
2022-11-13T10:51:00.115Z,6.24
2022-11-13T10:56:30.247Z,6.43
2022-11-13T11:01:50.748Z,6.19
2022-11-13T11:07:20.604Z,5.94
2022-11-13T11:12:43.172Z,6.30
2022-11-13T11:18:07.956Z,5.55
2022-11-13T11:23:40.680Z,6.15
2022-11-13T11:29:21.764Z,6.39
2022-11-13T11:34:50.372Z,6.07
2022-11-13T11:40:21.387Z,6.26
2022-11-13T11:45:46.624Z,5.63
2022-11-13T11:51:40.243Z,5.84
2022-11-13T11:57:15.912Z,5.94
2022-11-13T12:02:55.566Z,6.12
2022-11-13T12:08:46.404Z,6.04
2022-11-13T12:14:35.785Z,5.98
2022-11-13T12:20:24.427Z,5.94
2022-11-13T12:26:06.511Z,5.65
2022-11-13T12:32:05.140Z,5.98
2022-11-13T12:37:43.175Z,5.65
2022-11-13T12:43:12.744Z,5.58
2022-11-13T12:48:35.305Z,5.54
2022-11-13T12:53:56.457Z,5.49
2022-11-13T12:59:30.453Z,5.72
2022-11-13T13:05:08.892Z,5.60
2022-11-13T13:10:48.444Z,4.92
2022-11-13T13:16:09.405Z,5.32
2022-11-13T13:21:43.888Z,5.36
2022-11-13T13:27:26.020Z,5.59
2022-11-13T13:32:56.425Z,5.47
2022-11-13T13:38:34.380Z,5.50
2022-11-13T13:44:27.745Z,5.44
2022-11-13T13:49:48.540Z,5.18
2022-11-13T13:55:36.445Z,4.93
2022-11-13T14:01:17.808Z,4.59
2022-11-13T14:06:52.651Z,5.18
2022-11-13T14:12:23.615Z,5.19
2022-11-13T14:17:44.788Z,4.21
2022-11-13T14:23:05.572Z,4.91
2022-11-13T14:28:29.285Z,4.88
2022-11-13T14:33:50.674Z,5.04
2022-11-13T14:39:22.878Z,5.14
2022-11-13T14:44:43.675Z,4.51
2022-11-13T14:50:48.545Z,4.94
2022-11-13T14:56:11.779Z,4.77
2022-11-13T15:01:33.133Z,3.87
2022-11-13T15:06:56.269Z,4.45
2022-11-13T15:12:17.018Z,4.59
2022-11-13T15:17:38.005Z,4.72
2022-11-13T15:23:01.648Z,4.78
2022-11-13T15:28:22.650Z,3.77
2022-11-13T15:33:43.524Z,4.78
2022-11-13T15:39:10.326Z,4.50
2022-11-13T15:44:34.367Z,3.86
2022-11-13T15:50:12.847Z,4.35
2022-11-13T15:55:35.089Z,3.83
2022-11-13T16:00:57.444Z,4.21
2022-11-13T16:06:20.876Z,3.56
2022-11-13T16:11:42.445Z,3.79
2022-11-13T16:17:05.746Z,4.23
2022-11-13T16:22:27.395Z,4.15
2022-11-13T16:27:48.175Z,4.25
2022-11-13T16:33:12.828Z,4.44
2022-11-13T16:38:33.624Z,3.97
2022-11-13T16:43:54.945Z,3.73
2022-11-13T16:49:19.320Z,3.97
2022-11-13T16:54:40.162Z,4.00
2022-11-13T17:00:01.197Z,4.27
2022-11-13T17:05:23.821Z,4.09
2022-11-13T17:10:44.957Z,3.92
2022-11-13T17:16:06.114Z,3.59
2022-11-13T17:21:30.195Z,3.63
2022-11-13T17:26:51.341Z,4.27
2022-11-13T17:32:12.162Z,4.02
2022-11-13T17:37:33.211Z,4.21
2022-11-13T17:42:54.241Z,4.04
2022-11-13T17:48:19.171Z,4.26
2022-11-13T17:53:45.415Z,4.16
2022-11-13T17:59:06.199Z,4.23
2022-11-13T18:04:27.393Z,3.69
2022-11-13T18:09:48.185Z,4.01
2022-11-13T18:15:11.860Z,3.39
2022-11-13T18:20:35.214Z,4.05
2022-11-13T18:25:56.286Z,3.83
2022-11-13T18:31:18.697Z,3.52
2022-11-13T18:36:41.816Z,3.82
2022-11-13T18:42:02.704Z,3.65
2022-11-13T18:47:26.598Z,3.65
2022-11-13T18:52:47.660Z,2.93
2022-11-13T18:58:14.545Z,3.34
2022-11-13T19:03:35.411Z,2.75
2022-11-13T19:09:05.131Z,3.55
2022-11-13T19:14:26.256Z,3.75
2022-11-13T19:19:47.343Z,3.50
2022-11-13T19:25:08.778Z,3.75
2022-11-13T19:30:29.893Z,3.76
2022-11-13T19:35:52.003Z,3.78
2022-11-13T19:41:12.877Z,3.43
2022-11-13T19:46:34.348Z,3.45
2022-11-13T19:51:55.375Z,3.43
2022-11-13T19:57:16.281Z,2.98
2022-11-13T20:02:36.967Z,2.81
2022-11-13T20:07:58.648Z,3.56
2022-11-13T20:13:19.528Z,3.28
2022-11-13T20:18:40.724Z,3.25
2022-11-13T20:24:01.863Z,3.39
2022-11-13T20:29:22.677Z,3.49
2022-11-13T20:34:43.464Z,3.38
2022-11-13T20:40:06.658Z,2.74
2022-11-13T20:45:27.451Z,2.84
2022-11-13T20:50:48.021Z,2.82
2022-11-13T20:56:09.669Z,3.28
2022-11-13T21:01:30.719Z,2.81
2022-11-13T21:06:52.719Z,2.52
2022-11-13T21:12:13.494Z,2.93
2022-11-13T21:17:34.056Z,3.17
2022-11-13T21:22:54.629Z,2.91
2022-11-13T21:28:19.521Z,3.06
2022-11-13T21:33:44.363Z,3.23
2022-11-13T21:39:05.030Z,3.06
2022-11-13T21:44:25.790Z,2.80
2022-11-13T21:49:46.698Z,2.05
2022-11-13T21:55:08.961Z,2.58
2022-11-13T22:00:29.726Z,2.44
2022-11-13T22:05:50.400Z,2.85
2022-11-13T22:11:12.187Z,1.95
2022-11-13T22:16:36.726Z,2.76
2022-11-13T22:21:57.542Z,2.32
2022-11-13T22:27:18.628Z,2.67
2022-11-13T22:32:39.217Z,2.36
2022-11-13T22:38:02.455Z,2.51
2022-11-13T22:43:23.316Z,1.93
2022-11-13T22:48:45.339Z,2.35
2022-11-13T22:54:07.990Z,2.34
2022-11-13T22:59:28.709Z,1.89
2022-11-13T23:04:49.378Z,2.22
2022-11-13T23:10:10.612Z,2.29
2022-11-13T23:15:31.619Z,1.35
2022-11-13T23:20:52.243Z,1.73
2022-11-13T23:26:14.578Z,1.53
2022-11-13T23:31:35.444Z,1.74
2022-11-13T23:36:56.084Z,1.81
2022-11-13T23:42:32.956Z,1.84
2022-11-13T23:47:57.265Z,2.35
2022-11-13T23:53:17.839Z,1.34
2022-11-13T23:58:38.328Z,1.91
